Terminal Aerodrome Forecast
Issued by NWS Portland, OR

Home | Current Version | Previous Version | Text Only | Print | Product List | Glossary On
Versions: 1 2 3 4 5 6 7 8 9 10 11 12 13 14 15 16 17 18 19 20 21 22 23 24 25 26 27 28 29 30
000
FTUS46 KPQR 222322
TAFAST
TAF
KAST 222322Z 2300/2324 24013KT P6SM -SHRA SCT022 OVC035
      TEMPO 2300/2302 BKN022
     FM230300 19005KT P6SM VCSH SCT025 BKN050
     FM230900 13005KT P6SM VCSH SCT025 BKN035
     FM232100 14015G20KT P6SM -RA SCT025 OVC035=

USA.gov is the U.S. government's official web portal to all federal, state and local government web resources and services.